createdAt,value
2023-04-16T00:00:56.198Z,71.75
2023-04-16T00:06:01.135Z,70.36
2023-04-16T00:11:04.493Z,70.42
2023-04-16T00:16:08.743Z,70.59
2023-04-16T00:21:13.572Z,71.71
2023-04-16T00:26:17.298Z,71.38
2023-04-16T00:31:28.404Z,70.73
2023-04-16T00:36:33.302Z,71.87
2023-04-16T00:41:36.696Z,72.15
2023-04-16T00:46:41.990Z,70.60
2023-04-16T00:51:47.023Z,72.00
2023-04-16T00:56:50.820Z,72.23
2023-04-16T01:01:54.411Z,70.69
2023-04-16T01:06:59.438Z,70.76
2023-04-16T01:12:03.648Z,72.22
2023-04-16T01:17:07.096Z,72.12
2023-04-16T01:22:12.016Z,72.02
2023-04-16T01:27:15.907Z,72.01
2023-04-16T01:32:19.535Z,71.95
2023-04-16T01:37:24.528Z,71.76
2023-04-16T01:42:28.304Z,71.44
2023-04-16T01:47:31.865Z,72.03
2023-04-16T01:52:37.276Z,71.09
2023-04-16T01:57:40.774Z,71.46
2023-04-16T02:02:44.335Z,70.90
2023-04-16T02:07:49.435Z,70.72
2023-04-16T02:12:52.934Z,71.40
2023-04-16T02:17:57.376Z,70.73
2023-04-16T02:23:02.307Z,70.57
2023-04-16T02:28:06.151Z,71.33
2023-04-16T02:33:10.847Z,71.15
2023-04-16T02:38:15.692Z,70.24
2023-04-16T02:43:19.171Z,70.70
2023-04-16T02:48:22.633Z,71.20
2023-04-16T02:53:27.559Z,70.44
2023-04-16T02:58:31.033Z,69.62
2023-04-16T03:03:34.481Z,69.68
2023-04-16T03:08:39.392Z,70.83
2023-04-16T03:13:42.883Z,70.06
2023-04-16T03:18:46.347Z,69.09
2023-04-16T03:23:53.496Z,70.77
2023-04-16T03:28:56.949Z,70.60
2023-04-16T03:34:00.485Z,69.18
2023-04-16T03:39:05.744Z,69.73
2023-04-16T03:44:09.190Z,69.14
2023-04-16T03:49:12.656Z,69.34
2023-04-16T03:54:17.520Z,70.25
2023-04-16T03:59:21.028Z,69.63
2023-04-16T04:04:24.605Z,70.40
2023-04-16T04:09:29.496Z,69.73
2023-04-16T04:14:32.943Z,69.50
2023-04-16T04:19:37.794Z,69.94
2023-04-16T04:24:45.172Z,68.34
2023-04-16T04:29:48.741Z,68.62
2023-04-16T04:34:52.253Z,68.40
2023-04-16T04:39:57.220Z,68.64
2023-04-16T04:45:00.861Z,68.82
2023-04-16T04:50:04.363Z,69.46
2023-04-16T04:55:09.793Z,69.44
2023-04-16T05:00:13.746Z,69.56
2023-04-16T05:05:17.290Z,68.88
2023-04-16T05:10:22.237Z,69.30
2023-04-16T05:15:27.037Z,69.31
2023-04-16T05:20:30.645Z,69.37
2023-04-16T05:25:35.902Z,69.06
2023-04-16T05:30:39.393Z,69.22
2023-04-16T05:35:42.842Z,68.21
2023-04-16T05:40:47.835Z,68.26
2023-04-16T05:45:51.366Z,69.10
2023-04-16T05:50:54.879Z,67.58
2023-04-16T05:55:59.788Z,69.47
2023-04-16T06:01:03.608Z,67.58
2023-04-16T06:06:09.040Z,68.57
2023-04-16T06:11:13.993Z,68.48
2023-04-16T06:16:17.489Z,67.76
2023-04-16T06:21:20.995Z,68.84
2023-04-16T06:26:25.930Z,68.32
2023-04-16T06:31:29.352Z,68.34
2023-04-16T06:36:32.972Z,66.96
2023-04-16T06:41:37.909Z,67.01
2023-04-16T06:46:41.423Z,67.13
2023-04-16T06:51:44.962Z,67.68
2023-04-16T06:56:49.866Z,65.65
2023-04-16T07:01:53.524Z,66.91
2023-04-16T07:06:57.140Z,66.07
2023-04-16T07:12:02.193Z,66.34
2023-04-16T07:17:05.736Z,66.28
2023-04-16T07:22:09.421Z,65.89
2023-04-16T07:27:14.319Z,67.30
2023-04-16T07:32:18.148Z,65.56
2023-04-16T07:37:21.673Z,66.92
2023-04-16T07:42:26.631Z,65.70
2023-04-16T07:47:30.169Z,66.29
2023-04-16T07:52:34.386Z,66.75
2023-04-16T07:57:39.311Z,65.50
2023-04-16T08:02:42.984Z,64.27
2023-04-16T08:07:46.562Z,64.00
2023-04-16T08:12:51.567Z,61.96
2023-04-16T08:17:55.195Z,63.81
2023-04-16T08:22:58.738Z,62.01
2023-04-16T08:28:03.688Z,61.78
2023-04-16T08:33:07.339Z,64.08
2023-04-16T08:38:10.908Z,62.29
2023-04-16T08:43:16.331Z,62.59
2023-04-16T08:48:22.196Z,64.19
2023-04-16T08:53:37.918Z,62.61
2023-04-16T08:58:42.943Z,62.91
2023-04-16T09:03:48.908Z,62.81
2023-04-16T09:08:52.491Z,62.79
2023-04-16T09:13:57.820Z,62.67
2023-04-16T09:19:01.318Z,62.71
2023-04-16T09:24:05.239Z,62.36
2023-04-16T09:29:10.426Z,62.97
2023-04-16T09:34:13.948Z,62.65
2023-04-16T09:39:21.012Z,61.77
2023-04-16T09:44:36.365Z,62.41
2023-04-16T09:49:43.284Z,62.30
2023-04-16T09:54:50.468Z,62.67
2023-04-16T09:59:57.508Z,62.38
2023-04-16T10:05:03.152Z,62.18
2023-04-16T10:10:07.535Z,62.41
2023-04-16T10:15:12.889Z,62.61
2023-04-16T10:20:17.348Z,62.91
2023-04-16T10:25:21.141Z,62.78
2023-04-16T10:30:26.398Z,63.28
2023-04-16T10:35:29.774Z,62.25
2023-04-16T10:40:33.220Z,62.93
2023-04-16T10:45:40.253Z,62.98
2023-04-16T10:50:43.974Z,63.13
2023-04-16T10:55:58.615Z,63.41
2023-04-16T11:01:03.594Z,63.02
2023-04-16T11:06:14.660Z,63.59
2023-04-16T11:11:18.130Z,62.59
2023-04-16T11:16:22.968Z,61.83
2023-04-16T11:21:26.827Z,61.63
2023-04-16T11:26:31.027Z,60.94
2023-04-16T11:31:36.037Z,60.96
2023-04-16T11:36:45.195Z,61.11
2023-04-16T11:41:50.695Z,61.16
2023-04-16T11:46:55.918Z,61.46
2023-04-16T11:51:59.749Z,62.24
2023-04-16T11:57:04.617Z,62.42
2023-04-16T12:02:09.549Z,62.76
2023-04-16T12:07:14.722Z,62.75
2023-04-16T12:12:27.847Z,63.33
2023-04-16T12:17:33.650Z,63.43
2023-04-16T12:22:38.181Z,64.63
2023-04-16T12:27:51.466Z,65.35
2023-04-16T12:33:16.780Z,65.37
2023-04-16T12:38:22.805Z,66.57
2023-04-16T12:43:27.756Z,67.21
2023-04-16T12:48:32.890Z,67.13
2023-04-16T12:53:36.404Z,66.71
2023-04-16T12:58:39.879Z,67.52
2023-04-16T13:03:44.967Z,67.00
2023-04-16T13:08:48.422Z,67.41
2023-04-16T13:13:51.863Z,67.44
2023-04-16T13:18:56.787Z,67.07
2023-04-16T13:24:00.863Z,67.54
2023-04-16T13:29:04.363Z,67.47
2023-04-16T13:34:09.226Z,67.08
2023-04-16T13:39:12.766Z,66.23
2023-04-16T13:44:16.316Z,65.87
2023-04-16T13:49:21.412Z,56.16
2023-04-16T13:54:24.911Z,62.80
2023-04-16T13:59:28.387Z,64.21
2023-04-16T14:04:33.253Z,64.31
2023-04-16T14:09:36.722Z,64.93
2023-04-16T14:14:40.093Z,65.09
2023-04-16T14:19:44.870Z,65.27
2023-04-16T14:24:48.225Z,65.33
2023-04-16T14:29:51.590Z,65.72
2023-04-16T14:34:56.322Z,65.55
2023-04-16T14:39:59.743Z,65.65
2023-04-16T14:45:03.141Z,65.88
2023-04-16T14:50:09.242Z,65.69
2023-04-16T14:55:12.645Z,66.02
2023-04-16T15:00:18.843Z,65.55
2023-04-16T15:05:23.661Z,65.50
2023-04-16T15:10:27.193Z,65.91
2023-04-16T15:15:30.603Z,65.98
2023-04-16T15:20:35.866Z,65.74
2023-04-16T15:25:39.220Z,65.94
2023-04-16T15:30:42.718Z,64.84
2023-04-16T15:35:47.597Z,64.91
2023-04-16T15:40:51.057Z,63.65
2023-04-16T15:45:54.467Z,64.13
2023-04-16T15:50:59.278Z,64.42
2023-04-16T15:56:02.748Z,64.05
2023-04-16T16:01:06.125Z,64.87
2023-04-16T16:06:11.221Z,64.24
2023-04-16T16:11:14.707Z,65.07
2023-04-16T16:16:18.110Z,64.42
2023-04-16T16:21:22.847Z,64.69
2023-04-16T16:26:26.246Z,64.89
2023-04-16T16:31:29.652Z,64.86
2023-04-16T16:36:36.855Z,65.26
2023-04-16T16:41:42.151Z,64.37
2023-04-16T16:46:45.600Z,64.79
2023-04-16T16:51:50.610Z,65.03
2023-04-16T16:56:54.137Z,64.90
2023-04-16T17:01:57.554Z,65.12
2023-04-16T17:07:02.424Z,65.22
2023-04-16T17:12:06.457Z,65.35
2023-04-16T17:17:10.076Z,64.71
2023-04-16T17:22:15.007Z,64.93
2023-04-16T17:27:18.454Z,65.34
2023-04-16T17:32:22.099Z,65.45
2023-04-16T17:37:27.535Z,65.20
2023-04-16T17:42:31.037Z,65.02
2023-04-16T17:47:36.438Z,65.24
2023-04-16T17:52:41.449Z,65.07
2023-04-16T17:57:45.217Z,64.87
2023-04-16T18:02:48.962Z,64.95
2023-04-16T18:07:55.563Z,65.09
2023-04-16T18:12:58.971Z,65.42
2023-04-16T18:18:02.384Z,65.26
2023-04-16T18:23:07.216Z,65.50
2023-04-16T18:28:13.619Z,65.10
2023-04-16T18:38:25.356Z,65.28
2023-04-16T18:43:28.706Z,65.62
2023-04-16T18:48:32.062Z,65.18
2023-04-16T18:53:36.830Z,65.58
2023-04-16T18:58:40.199Z,65.30
2023-04-16T19:03:43.619Z,65.08
2023-04-16T19:08:48.427Z,65.04
2023-04-16T19:13:51.791Z,65.33
2023-04-16T19:18:55.136Z,65.73
2023-04-16T19:24:00.110Z,65.39
2023-04-16T19:29:03.609Z,65.82
2023-04-16T19:34:06.953Z,66.09
2023-04-16T19:39:12.060Z,65.65
2023-04-16T19:44:15.548Z,65.90
2023-04-16T19:49:18.948Z,65.92
2023-04-16T19:54:23.742Z,65.70
2023-04-16T19:59:28.747Z,66.00
2023-04-16T20:04:32.203Z,65.85
2023-04-16T20:09:37.008Z,65.78
2023-04-16T20:14:42.008Z,65.56
2023-04-16T20:19:47.518Z,66.25
2023-04-16T20:24:55.193Z,66.47
2023-04-16T20:29:58.622Z,66.55
2023-04-16T20:35:02.100Z,66.04
2023-04-16T20:40:09.337Z,65.82
2023-04-16T20:45:13.011Z,66.36
2023-04-16T20:50:16.727Z,66.16
2023-04-16T20:55:21.858Z,66.07
2023-04-16T21:00:25.548Z,66.34
2023-04-16T21:05:30.105Z,66.38
2023-04-16T21:10:34.897Z,66.49
2023-04-16T21:15:38.624Z,66.32
2023-04-16T21:20:42.017Z,66.62
2023-04-16T21:25:46.944Z,66.21
2023-04-16T21:30:52.430Z,66.95
2023-04-16T21:35:56.292Z,66.03
2023-04-16T21:41:02.606Z,65.99
2023-04-16T21:46:06.155Z,66.24
2023-04-16T21:51:10.169Z,65.93
2023-04-16T21:56:14.947Z,65.77
2023-04-16T22:01:18.460Z,65.60
2023-04-16T22:06:21.888Z,65.93
2023-04-16T22:11:26.680Z,65.60
2023-04-16T22:16:30.087Z,66.07
2023-04-16T22:21:33.548Z,65.44
2023-04-16T22:26:38.318Z,65.63
2023-04-16T22:31:41.754Z,65.80
2023-04-16T22:36:45.193Z,65.86
2023-04-16T22:41:50.004Z,64.95
2023-04-16T22:46:53.409Z,65.08
2023-04-16T22:51:56.775Z,65.10
2023-04-16T22:57:02.223Z,65.51
2023-04-16T23:02:05.647Z,65.05
2023-04-16T23:07:09.044Z,65.21
2023-04-16T23:12:13.847Z,64.50
2023-04-16T23:17:17.248Z,64.97
2023-04-16T23:22:20.570Z,65.22
2023-04-16T23:27:25.431Z,64.49
2023-04-16T23:32:28.852Z,65.10
2023-04-16T23:37:32.217Z,65.09
2023-04-16T23:42:37.035Z,65.38
2023-04-16T23:47:40.439Z,64.99
2023-04-16T23:52:43.787Z,65.09
2023-04-16T23:57:48.532Z,64.77
